Hollister, California
Current Conditions -  °F | °C
As of 8:30 PM on Friday 19 Dec 2014 (Local Time) from KCVH Reporting Station
Broken Clouds Broken Clouds  
Wind Chill: 57°   Ceiling: 8000
Heat Index: 57°   Visibility: 10mi
Dew Point: 57°   Wind: 7mph
Humidity: 100%   Direction: 160°SSE
Pressure: 30.14"   Gusts: NA
Location:  36.85°N, 121.4°W
Report Text: KCVH 200430Z AUTO 16006KT 10SM FEW030 SCT039 BKN080 14/14 A3014 RMK AO1
Loading
Personal Weather Stations






























Interactive Weather Map New forecast layout! Learn more

10-Day Weather Forecast

Advertisements
Track Severe Weather on mobile